sensor_id;sensor_type;location;lat;lon;timestamp;P1;durP1;ratioP1;P2;durP2;ratioP2
20080;SDS011;10200;49.232;9.222;2023-05-07T00:01:55;2.80;;;1.80;;
20080;SDS011;10200;49.232;9.222;2023-05-07T00:04:21;1.97;;;1.77;;
20080;SDS011;10200;49.232;9.222;2023-05-07T00:06:47;3.43;;;2.03;;
20080;SDS011;10200;49.232;9.222;2023-05-07T00:09:13;7.23;;;2.33;;
20080;SDS011;10200;49.232;9.222;2023-05-07T00:11:41;2.40;;;1.47;;
20080;SDS011;10200;49.232;9.222;2023-05-07T00:14:07;4.47;;;2.37;;
20080;SDS011;10200;49.232;9.222;2023-05-07T00:16:32;3.87;;;2.70;;
20080;SDS011;10200;49.232;9.222;2023-05-07T00:18:59;4.07;;;3.17;;
20080;SDS011;10200;49.232;9.222;2023-05-07T00:21:25;3.27;;;2.67;;
20080;SDS011;10200;49.232;9.222;2023-05-07T00:23:53;6.13;;;2.47;;
20080;SDS011;10200;49.232;9.222;2023-05-07T00:26:19;2.27;;;1.90;;
20080;SDS011;10200;49.232;9.222;2023-05-07T00:28:45;3.70;;;2.53;;
20080;SDS011;10200;49.232;9.222;2023-05-07T00:31:11;2.13;;;1.93;;
20080;SDS011;10200;49.232;9.222;2023-05-07T00:33:37;2.13;;;1.50;;
20080;SDS011;10200;49.232;9.222;2023-05-07T00:36:03;3.37;;;2.60;;
20080;SDS011;10200;49.232;9.222;2023-05-07T00:38:29;2.50;;;1.93;;
20080;SDS011;10200;49.232;9.222;2023-05-07T00:40:55;4.33;;;2.13;;
20080;SDS011;10200;49.232;9.222;2023-05-07T00:43:20;3.83;;;1.90;;
20080;SDS011;10200;49.232;9.222;2023-05-07T00:45:46;2.00;;;1.77;;
20080;SDS011;10200;49.232;9.222;2023-05-07T00:48:12;2.13;;;1.90;;
20080;SDS011;10200;49.232;9.222;2023-05-07T00:50:38;2.00;;;1.80;;
20080;SDS011;10200;49.232;9.222;2023-05-07T00:53:04;2.53;;;1.67;;
20080;SDS011;10200;49.232;9.222;2023-05-07T00:55:31;3.47;;;2.00;;
20080;SDS011;10200;49.232;9.222;2023-05-07T00:57:57;3.80;;;1.93;;
20080;SDS011;10200;49.232;9.222;2023-05-07T01:00:23;1.63;;;1.53;;
20080;SDS011;10200;49.232;9.222;2023-05-07T01:02:50;3.93;;;2.97;;
20080;SDS011;10200;49.232;9.222;2023-05-07T01:05:16;3.13;;;2.30;;
20080;SDS011;10200;49.232;9.222;2023-05-07T01:07:44;3.63;;;1.80;;
20080;SDS011;10200;49.232;9.222;2023-05-07T01:10:10;2.63;;;1.93;;
20080;SDS011;10200;49.232;9.222;2023-05-07T01:12:37;3.03;;;1.80;;
20080;SDS011;10200;49.232;9.222;2023-05-07T01:15:06;1.97;;;1.63;;
20080;SDS011;10200;49.232;9.222;2023-05-07T01:17:41;2.90;;;1.77;;
20080;SDS011;10200;49.232;9.222;2023-05-07T01:20:07;2.83;;;2.03;;
20080;SDS011;10200;49.232;9.222;2023-05-07T01:22:35;1.63;;;1.53;;
20080;SDS011;10200;49.232;9.222;2023-05-07T01:25:05;2.77;;;2.43;;
20080;SDS011;10200;49.232;9.222;2023-05-07T01:27:35;4.07;;;3.37;;
20080;SDS011;10200;49.232;9.222;2023-05-07T01:30:02;3.00;;;1.83;;
20080;SDS011;10200;49.232;9.222;2023-05-07T01:32:35;3.67;;;2.30;;
20080;SDS011;10200;49.232;9.222;2023-05-07T01:35:05;2.20;;;2.00;;
20080;SDS011;10200;49.232;9.222;2023-05-07T01:37:35;6.03;;;1.70;;
20080;SDS011;10200;49.232;9.222;2023-05-07T01:40:02;3.50;;;2.40;;
20080;SDS011;10200;49.232;9.222;2023-05-07T01:42:29;2.83;;;2.43;;
20080;SDS011;10200;49.232;9.222;2023-05-07T01:44:56;5.90;;;2.10;;
20080;SDS011;10200;49.232;9.222;2023-05-07T01:47:22;2.00;;;1.80;;
20080;SDS011;10200;49.232;9.222;2023-05-07T01:49:48;3.43;;;1.80;;
20080;SDS011;10200;49.232;9.222;2023-05-07T01:52:15;4.13;;;1.87;;
20080;SDS011;10200;49.232;9.222;2023-05-07T01:54:41;1.93;;;1.77;;
20080;SDS011;10200;49.232;9.222;2023-05-07T01:57:07;2.03;;;1.63;;
20080;SDS011;10200;49.232;9.222;2023-05-07T01:59:33;4.27;;;2.67;;
20080;SDS011;10200;49.232;9.222;2023-05-07T02:01:58;1.97;;;1.77;;
20080;SDS011;10200;49.232;9.222;2023-05-07T02:04:25;2.47;;;2.10;;
20080;SDS011;10200;49.232;9.222;2023-05-07T02:06:51;2.40;;;1.97;;
20080;SDS011;10200;49.232;9.222;2023-05-07T02:09:17;2.10;;;1.73;;
20080;SDS011;10200;49.232;9.222;2023-05-07T02:11:43;2.43;;;1.90;;
20080;SDS011;10200;49.232;9.222;2023-05-07T02:14:11;5.03;;;2.10;;
20080;SDS011;10200;49.232;9.222;2023-05-07T02:16:36;3.50;;;2.10;;
20080;SDS011;10200;49.232;9.222;2023-05-07T02:19:05;2.47;;;2.00;;
20080;SDS011;10200;49.232;9.222;2023-05-07T02:21:31;2.30;;;2.07;;
20080;SDS011;10200;49.232;9.222;2023-05-07T02:23:57;5.53;;;1.90;;
20080;SDS011;10200;49.232;9.222;2023-05-07T02:26:22;2.57;;;2.37;;
20080;SDS011;10200;49.232;9.222;2023-05-07T02:28:48;3.07;;;2.20;;
20080;SDS011;10200;49.232;9.222;2023-05-07T02:31:14;2.77;;;2.00;;
20080;SDS011;10200;49.232;9.222;2023-05-07T02:33:40;3.93;;;2.20;;
20080;SDS011;10200;49.232;9.222;2023-05-07T02:36:09;2.30;;;2.10;;
20080;SDS011;10200;49.232;9.222;2023-05-07T02:38:49;2.20;;;1.90;;
20080;SDS011;10200;49.232;9.222;2023-05-07T02:41:15;3.57;;;1.83;;
20080;SDS011;10200;49.232;9.222;2023-05-07T02:43:41;2.37;;;2.17;;
20080;SDS011;10200;49.232;9.222;2023-05-07T02:46:07;3.50;;;2.30;;
20080;SDS011;10200;49.232;9.222;2023-05-07T02:48:34;2.43;;;2.23;;
20080;SDS011;10200;49.232;9.222;2023-05-07T02:51:00;2.40;;;2.20;;
20080;SDS011;10200;49.232;9.222;2023-05-07T02:53:26;3.97;;;2.13;;
20080;SDS011;10200;49.232;9.222;2023-05-07T02:55:52;2.77;;;2.13;;
20080;SDS011;10200;49.232;9.222;2023-05-07T02:58:18;2.80;;;2.50;;
20080;SDS011;10200;49.232;9.222;2023-05-07T03:00:44;5.07;;;2.10;;
20080;SDS011;10200;49.232;9.222;2023-05-07T03:03:10;3.70;;;1.93;;
20080;SDS011;10200;49.232;9.222;2023-05-07T03:05:36;2.37;;;2.17;;
20080;SDS011;10200;49.232;9.222;2023-05-07T03:08:02;2.13;;;1.93;;
20080;SDS011;10200;49.232;9.222;2023-05-07T03:10:28;3.70;;;2.00;;
20080;SDS011;10200;49.232;9.222;2023-05-07T03:12:55;2.43;;;2.13;;
20080;SDS011;10200;49.232;9.222;2023-05-07T03:15:21;2.80;;;2.10;;
20080;SDS011;10200;49.232;9.222;2023-05-07T03:17:47;2.13;;;1.90;;
20080;SDS011;10200;49.232;9.222;2023-05-07T03:20:13;4.27;;;1.93;;
20080;SDS011;10200;49.232;9.222;2023-05-07T03:22:39;3.13;;;2.03;;
20080;SDS011;10200;49.232;9.222;2023-05-07T03:25:05;2.67;;;2.03;;
20080;SDS011;10200;49.232;9.222;2023-05-07T03:27:34;2.90;;;1.93;;
20080;SDS011;10200;49.232;9.222;2023-05-07T03:30:01;2.10;;;1.83;;
20080;SDS011;10200;49.232;9.222;2023-05-07T03:32:26;2.63;;;2.00;;
20080;SDS011;10200;49.232;9.222;2023-05-07T03:34:52;2.10;;;1.90;;
20080;SDS011;10200;49.232;9.222;2023-05-07T03:37:18;2.83;;;2.33;;
20080;SDS011;10200;49.232;9.222;2023-05-07T03:39:44;3.77;;;2.20;;
20080;SDS011;10200;49.232;9.222;2023-05-07T03:42:10;4.33;;;2.17;;
20080;SDS011;10200;49.232;9.222;2023-05-07T03:44:36;2.73;;;2.33;;
20080;SDS011;10200;49.232;9.222;2023-05-07T03:47:02;2.93;;;2.03;;
20080;SDS011;10200;49.232;9.222;2023-05-07T03:49:29;4.00;;;2.00;;
20080;SDS011;10200;49.232;9.222;2023-05-07T03:51:54;2.10;;;1.87;;
20080;SDS011;10200;49.232;9.222;2023-05-07T03:54:20;3.43;;;1.93;;
20080;SDS011;10200;49.232;9.222;2023-05-07T03:56:47;6.50;;;2.03;;
20080;SDS011;10200;49.232;9.222;2023-05-07T03:59:13;3.67;;;1.80;;
20080;SDS011;10200;49.232;9.222;2023-05-07T04:01:40;2.20;;;1.93;;
20080;SDS011;10200;49.232;9.222;2023-05-07T04:04:05;3.37;;;2.03;;
20080;SDS011;10200;49.232;9.222;2023-05-07T04:06:31;2.10;;;1.90;;
20080;SDS011;10200;49.232;9.222;2023-05-07T04:08:59;2.33;;;1.90;;
20080;SDS011;10200;49.232;9.222;2023-05-07T04:11:24;2.43;;;2.23;;
20080;SDS011;10200;49.232;9.222;2023-05-07T04:13:50;4.30;;;2.00;;
20080;SDS011;10200;49.232;9.222;2023-05-07T04:16:17;2.50;;;2.17;;
20080;SDS011;10200;49.232;9.222;2023-05-07T04:18:44;3.30;;;2.07;;
20080;SDS011;10200;49.232;9.222;2023-05-07T04:21:14;2.67;;;1.83;;
20080;SDS011;10200;49.232;9.222;2023-05-07T04:23:40;2.50;;;2.17;;
20080;SDS011;10200;49.232;9.222;2023-05-07T04:26:06;1.93;;;1.80;;
20080;SDS011;10200;49.232;9.222;2023-05-07T04:28:32;2.37;;;2.17;;
20080;SDS011;10200;49.232;9.222;2023-05-07T04:31:01;2.63;;;2.00;;
20080;SDS011;10200;49.232;9.222;2023-05-07T04:33:27;2.23;;;1.80;;
20080;SDS011;10200;49.232;9.222;2023-05-07T04:35:53;3.23;;;2.20;;
20080;SDS011;10200;49.232;9.222;2023-05-07T04:38:19;4.57;;;2.37;;
20080;SDS011;10200;49.232;9.222;2023-05-07T04:40:45;3.10;;;2.40;;
20080;SDS011;10200;49.232;9.222;2023-05-07T04:43:11;2.87;;;2.30;;
20080;SDS011;10200;49.232;9.222;2023-05-07T04:45:38;2.20;;;1.93;;
20080;SDS011;10200;49.232;9.222;2023-05-07T04:48:06;3.83;;;2.00;;
20080;SDS011;10200;49.232;9.222;2023-05-07T04:50:32;2.47;;;1.83;;
20080;SDS011;10200;49.232;9.222;2023-05-07T04:52:58;3.60;;;1.93;;
20080;SDS011;10200;49.232;9.222;2023-05-07T04:55:26;2.20;;;1.90;;
20080;SDS011;10200;49.232;9.222;2023-05-07T04:57:54;2.67;;;1.93;;
20080;SDS011;10200;49.232;9.222;2023-05-07T05:00:20;4.13;;;2.63;;
20080;SDS011;10200;49.232;9.222;2023-05-07T05:02:48;6.70;;;4.40;;
20080;SDS011;10200;49.232;9.222;2023-05-07T05:05:14;7.03;;;4.93;;
20080;SDS011;10200;49.232;9.222;2023-05-07T05:07:40;5.97;;;4.13;;
20080;SDS011;10200;49.232;9.222;2023-05-07T05:10:06;4.73;;;3.27;;
20080;SDS011;10200;49.232;9.222;2023-05-07T05:12:32;3.77;;;3.13;;
20080;SDS011;10200;49.232;9.222;2023-05-07T05:14:58;5.10;;;2.60;;
20080;SDS011;10200;49.232;9.222;2023-05-07T05:17:23;2.97;;;2.60;;
20080;SDS011;10200;49.232;9.222;2023-05-07T05:19:49;2.43;;;2.00;;
20080;SDS011;10200;49.232;9.222;2023-05-07T05:22:15;5.17;;;3.40;;
20080;SDS011;10200;49.232;9.222;2023-05-07T05:24:41;3.10;;;2.30;;
20080;SDS011;10200;49.232;9.222;2023-05-07T05:27:07;2.90;;;2.60;;
20080;SDS011;10200;49.232;9.222;2023-05-07T05:29:33;2.30;;;2.10;;
20080;SDS011;10200;49.232;9.222;2023-05-07T05:31:58;3.00;;;2.13;;
20080;SDS011;10200;49.232;9.222;2023-05-07T05:34:24;3.30;;;2.10;;
20080;SDS011;10200;49.232;9.222;2023-05-07T05:36:50;3.03;;;1.90;;
20080;SDS011;10200;49.232;9.222;2023-05-07T05:39:15;2.50;;;2.30;;
20080;SDS011;10200;49.232;9.222;2023-05-07T05:41:42;2.60;;;2.10;;
20080;SDS011;10200;49.232;9.222;2023-05-07T05:44:12;2.53;;;2.20;;
20080;SDS011;10200;49.232;9.222;2023-05-07T05:46:38;4.20;;;2.13;;
20080;SDS011;10200;49.232;9.222;2023-05-07T05:49:03;3.17;;;2.20;;
20080;SDS011;10200;49.232;9.222;2023-05-07T05:51:29;3.20;;;2.60;;
20080;SDS011;10200;49.232;9.222;2023-05-07T05:53:57;3.53;;;2.83;;
20080;SDS011;10200;49.232;9.222;2023-05-07T05:56:25;4.17;;;2.63;;
20080;SDS011;10200;49.232;9.222;2023-05-07T05:58:51;2.42;;;2.05;;
20080;SDS011;10200;49.232;9.222;2023-05-07T06:01:18;2.50;;;1.90;;
20080;SDS011;10200;49.232;9.222;2023-05-07T06:03:45;2.13;;;1.90;;
20080;SDS011;10200;49.232;9.222;2023-05-07T06:06:10;3.08;;;2.40;;
20080;SDS011;10200;49.232;9.222;2023-05-07T06:08:39;2.67;;;2.25;;
20080;SDS011;10200;49.232;9.222;2023-05-07T06:11:06;3.10;;;1.90;;
20080;SDS011;10200;49.232;9.222;2023-05-07T06:13:32;2.53;;;2.33;;
20080;SDS011;10200;49.232;9.222;2023-05-07T06:16:00;3.40;;;1.95;;
20080;SDS011;10200;49.232;9.222;2023-05-07T06:18:26;2.50;;;2.30;;
20080;SDS011;10200;49.232;9.222;2023-05-07T06:20:52;2.83;;;1.65;;
20080;SDS011;10200;49.232;9.222;2023-05-07T06:23:19;3.25;;;2.10;;
20080;SDS011;10200;49.232;9.222;2023-05-07T06:25:48;4.80;;;2.53;;
20080;SDS011;10200;49.232;9.222;2023-05-07T06:28:17;3.50;;;2.17;;
20080;SDS011;10200;49.232;9.222;2023-05-07T06:30:44;3.30;;;2.40;;
20080;SDS011;10200;49.232;9.222;2023-05-07T06:33:12;2.45;;;2.25;;
20080;SDS011;10200;49.232;9.222;2023-05-07T06:35:37;3.27;;;2.20;;
20080;SDS011;10200;49.232;9.222;2023-05-07T06:38:03;3.30;;;2.40;;
20080;SDS011;10200;49.232;9.222;2023-05-07T06:40:29;2.47;;;2.10;;
20080;SDS011;10200;49.232;9.222;2023-05-07T06:42:55;3.77;;;2.73;;
20080;SDS011;10200;49.232;9.222;2023-05-07T06:45:20;2.78;;;2.42;;
20080;SDS011;10200;49.232;9.222;2023-05-07T06:47:46;3.77;;;2.90;;
20080;SDS011;10200;49.232;9.222;2023-05-07T06:50:12;3.00;;;2.70;;
20080;SDS011;10200;49.232;9.222;2023-05-07T06:52:41;2.50;;;2.20;;
20080;SDS011;10200;49.232;9.222;2023-05-07T06:55:07;6.33;;;2.30;;
20080;SDS011;10200;49.232;9.222;2023-05-07T06:57:34;3.10;;;2.40;;
20080;SDS011;10200;49.232;9.222;2023-05-07T06:59:59;2.53;;;2.33;;
20080;SDS011;10200;49.232;9.222;2023-05-07T07:02:25;3.55;;;2.40;;
20080;SDS011;10200;49.232;9.222;2023-05-07T07:04:51;2.40;;;2.20;;
20080;SDS011;10200;49.232;9.222;2023-05-07T07:07:18;2.88;;;2.28;;
20080;SDS011;10200;49.232;9.222;2023-05-07T07:09:44;2.70;;;2.00;;
20080;SDS011;10200;49.232;9.222;2023-05-07T07:12:09;5.97;;;2.30;;
20080;SDS011;10200;49.232;9.222;2023-05-07T07:14:35;2.72;;;2.20;;
20080;SDS011;10200;49.232;9.222;2023-05-07T07:17:01;3.80;;;2.10;;
20080;SDS011;10200;49.232;9.222;2023-05-07T07:19:27;2.53;;;1.80;;
20080;SDS011;10200;49.232;9.222;2023-05-07T07:21:55;2.38;;;2.17;;
20080;SDS011;10200;49.232;9.222;2023-05-07T07:24:21;2.65;;;1.75;;
20080;SDS011;10200;49.232;9.222;2023-05-07T07:26:47;2.75;;;1.73;;
20080;SDS011;10200;49.232;9.222;2023-05-07T07:29:14;3.13;;;1.90;;
20080;SDS011;10200;49.232;9.222;2023-05-07T07:31:39;4.85;;;2.20;;
20080;SDS011;10200;49.232;9.222;2023-05-07T07:34:05;2.13;;;1.92;;
20080;SDS011;10200;49.232;9.222;2023-05-07T07:36:31;2.90;;;2.22;;
20080;SDS011;10200;49.232;9.222;2023-05-07T07:38:57;3.58;;;2.20;;
20080;SDS011;10200;49.232;9.222;2023-05-07T07:41:23;2.92;;;2.20;;
20080;SDS011;10200;49.232;9.222;2023-05-07T07:43:48;3.75;;;2.10;;
20080;SDS011;10200;49.232;9.222;2023-05-07T07:46:16;2.55;;;1.80;;
20080;SDS011;10200;49.232;9.222;2023-05-07T07:48:43;3.00;;;1.70;;
20080;SDS011;10200;49.232;9.222;2023-05-07T07:51:08;1.77;;;1.67;;
20080;SDS011;10200;49.232;9.222;2023-05-07T07:53:35;1.75;;;1.65;;
20080;SDS011;10200;49.232;9.222;2023-05-07T07:56:00;3.38;;;1.80;;
20080;SDS011;10200;49.232;9.222;2023-05-07T07:58:26;2.47;;;1.77;;
20080;SDS011;10200;49.232;9.222;2023-05-07T08:00:52;1.88;;;1.75;;
20080;SDS011;10200;49.232;9.222;2023-05-07T08:03:38;3.78;;;2.20;;
20080;SDS011;10200;49.232;9.222;2023-05-07T08:06:04;2.15;;;1.90;;
20080;SDS011;10200;49.232;9.222;2023-05-07T08:08:31;2.78;;;1.90;;
20080;SDS011;10200;49.232;9.222;2023-05-07T08:10:57;3.55;;;1.90;;
20080;SDS011;10200;49.232;9.222;2023-05-07T08:13:23;1.80;;;1.70;;
20080;SDS011;10200;49.232;9.222;2023-05-07T08:15:48;2.25;;;1.90;;
20080;SDS011;10200;49.232;9.222;2023-05-07T08:18:14;2.42;;;1.40;;
20080;SDS011;10200;49.232;9.222;2023-05-07T08:20:40;1.75;;;1.65;;
20080;SDS011;10200;49.232;9.222;2023-05-07T08:23:06;2.85;;;1.88;;
20080;SDS011;10200;49.232;9.222;2023-05-07T08:25:33;3.15;;;2.28;;
20080;SDS011;10200;49.232;9.222;2023-05-07T08:27:59;3.38;;;1.77;;
20080;SDS011;10200;49.232;9.222;2023-05-07T08:30:26;2.33;;;1.80;;
20080;SDS011;10200;49.232;9.222;2023-05-07T08:32:52;1.90;;;1.70;;
20080;SDS011;10200;49.232;9.222;2023-05-07T08:35:18;2.15;;;1.65;;
20080;SDS011;10200;49.232;9.222;2023-05-07T08:37:44;1.70;;;1.60;;
20080;SDS011;10200;49.232;9.222;2023-05-07T08:40:10;4.50;;;1.42;;
20080;SDS011;10200;49.232;9.222;2023-05-07T08:42:36;1.75;;;1.65;;
20080;SDS011;10200;49.232;9.222;2023-05-07T08:45:04;1.63;;;1.40;;
20080;SDS011;10200;49.232;9.222;2023-05-07T08:47:36;6.43;;;1.85;;
20080;SDS011;10200;49.232;9.222;2023-05-07T08:50:13;7.13;;;1.60;;
20080;SDS011;10200;49.232;9.222;2023-05-07T08:52:41;3.80;;;2.17;;
20080;SDS011;10200;49.232;9.222;2023-05-07T08:55:07;1.52;;;1.33;;
20080;SDS011;10200;49.232;9.222;2023-05-07T08:57:33;1.15;;;1.10;;
20080;SDS011;10200;49.232;9.222;2023-05-07T08:59:59;1.42;;;1.33;;
20080;SDS011;10200;49.232;9.222;2023-05-07T09:02:25;1.65;;;1.55;;
20080;SDS011;10200;49.232;9.222;2023-05-07T09:04:53;1.90;;;1.70;;
20080;SDS011;10200;49.232;9.222;2023-05-07T09:07:19;3.15;;;1.50;;
20080;SDS011;10200;49.232;9.222;2023-05-07T09:09:45;1.80;;;1.50;;
20080;SDS011;10200;49.232;9.222;2023-05-07T09:12:11;1.65;;;1.42;;
20080;SDS011;10200;49.232;9.222;2023-05-07T09:14:37;3.17;;;1.33;;
20080;SDS011;10200;49.232;9.222;2023-05-07T09:17:04;2.55;;;1.30;;
20080;SDS011;10200;49.232;9.222;2023-05-07T09:19:30;1.58;;;1.48;;
20080;SDS011;10200;49.232;9.222;2023-05-07T09:22:01;3.65;;;1.80;;
20080;SDS011;10200;49.232;9.222;2023-05-07T09:24:32;1.77;;;1.60;;
20080;SDS011;10200;49.232;9.222;2023-05-07T09:27:03;1.73;;;1.60;;
20080;SDS011;10200;49.232;9.222;2023-05-07T09:29:29;1.77;;;1.50;;
20080;SDS011;10200;49.232;9.222;2023-05-07T09:32:00;3.13;;;1.77;;
20080;SDS011;10200;49.232;9.222;2023-05-07T09:34:28;5.70;;;1.77;;
20080;SDS011;10200;49.232;9.222;2023-05-07T09:36:55;3.03;;;1.58;;
20080;SDS011;10200;49.232;9.222;2023-05-07T09:39:21;1.10;;;1.05;;
20080;SDS011;10200;49.232;9.222;2023-05-07T09:41:48;3.00;;;1.75;;
20080;SDS011;10200;49.232;9.222;2023-05-07T09:44:16;3.92;;;1.60;;
20080;SDS011;10200;49.232;9.222;2023-05-07T09:46:43;3.92;;;1.77;;
20080;SDS011;10200;49.232;9.222;2023-05-07T09:49:12;1.60;;;1.38;;
20080;SDS011;10200;49.232;9.222;2023-05-07T09:51:47;2.20;;;1.58;;
20080;SDS011;10200;49.232;9.222;2023-05-07T09:54:15;2.90;;;1.48;;
20080;SDS011;10200;49.232;9.222;2023-05-07T09:56:45;2.25;;;1.40;;
20080;SDS011;10200;49.232;9.222;2023-05-07T09:59:13;2.15;;;1.58;;
20080;SDS011;10200;49.232;9.222;2023-05-07T10:01:41;3.10;;;1.40;;
20080;SDS011;10200;49.232;9.222;2023-05-07T10:04:12;4.10;;;1.48;;
20080;SDS011;10200;49.232;9.222;2023-05-07T10:06:39;1.50;;;1.40;;
20080;SDS011;10200;49.232;9.222;2023-05-07T10:09:06;2.28;;;1.58;;
20080;SDS011;10200;49.232;9.222;2023-05-07T10:11:34;1.75;;;1.35;;
20080;SDS011;10200;49.232;9.222;2023-05-07T10:14:04;1.45;;;1.35;;
20080;SDS011;10200;49.232;9.222;2023-05-07T10:16:34;3.75;;;1.60;;
20080;SDS011;10200;49.232;9.222;2023-05-07T10:19:05;1.42;;;1.33;;
20080;SDS011;10200;49.232;9.222;2023-05-07T10:21:34;1.83;;;1.45;;
20080;SDS011;10200;49.232;9.222;2023-05-07T10:24:05;7.07;;;1.60;;
20080;SDS011;10200;49.232;9.222;2023-05-07T10:26:56;3.70;;;1.30;;
20080;SDS011;10200;49.232;9.222;2023-05-07T10:34:38;2.60;;;1.20;;
20080;SDS011;10200;49.232;9.222;2023-05-07T10:37:06;2.13;;;1.35;;
20080;SDS011;10200;49.232;9.222;2023-05-07T10:39:34;2.08;;;1.27;;
20080;SDS011;10200;49.232;9.222;2023-05-07T10:42:09;1.40;;;1.30;;
20080;SDS011;10200;49.232;9.222;2023-05-07T10:44:36;2.83;;;1.70;;
20080;SDS011;10200;49.232;9.222;2023-05-07T10:47:09;5.40;;;1.73;;
20080;SDS011;10200;49.232;9.222;2023-05-07T10:52:31;1.65;;;1.55;;
20080;SDS011;10200;49.232;9.222;2023-05-07T10:57:43;2.13;;;1.40;;
20080;SDS011;10200;49.232;9.222;2023-05-07T11:05:31;1.65;;;1.13;;
20080;SDS011;10200;49.232;9.222;2023-05-07T11:07:59;2.85;;;1.23;;
20080;SDS011;10200;49.232;9.222;2023-05-07T11:13:18;2.42;;;1.25;;
20080;SDS011;10200;49.232;9.222;2023-05-07T11:16:05;1.98;;;1.38;;
20080;SDS011;10200;49.232;9.222;2023-05-07T11:18:49;1.88;;;1.40;;
20080;SDS011;10200;49.232;9.222;2023-05-07T11:21:37;2.67;;;1.38;;
20080;SDS011;10200;49.232;9.222;2023-05-07T11:24:07;2.33;;;1.33;;
20080;SDS011;10200;49.232;9.222;2023-05-07T11:26:43;3.95;;;1.35;;
20080;SDS011;10200;49.232;9.222;2023-05-07T11:29:19;1.48;;;1.23;;
20080;SDS011;10200;49.232;9.222;2023-05-07T11:31:50;1.55;;;1.08;;
20080;SDS011;10200;49.232;9.222;2023-05-07T11:34:23;2.33;;;1.00;;
20080;SDS011;10200;49.232;9.222;2023-05-07T11:36:51;1.50;;;1.40;;
20080;SDS011;10200;49.232;9.222;2023-05-07T11:39:24;1.02;;;0.90;;
20080;SDS011;10200;49.232;9.222;2023-05-07T11:41:53;1.55;;;1.40;;
20080;SDS011;10200;49.232;9.222;2023-05-07T11:44:18;1.40;;;1.00;;
20080;SDS011;10200;49.232;9.222;2023-05-07T11:46:44;1.75;;;1.15;;
20080;SDS011;10200;49.232;9.222;2023-05-07T11:49:11;1.02;;;0.93;;
20080;SDS011;10200;49.232;9.222;2023-05-07T11:51:37;1.90;;;1.10;;
20080;SDS011;10200;49.232;9.222;2023-05-07T11:54:04;2.67;;;1.00;;
20080;SDS011;10200;49.232;9.222;2023-05-07T11:56:34;1.83;;;1.13;;
20080;SDS011;10200;49.232;9.222;2023-05-07T11:59:02;2.05;;;1.08;;
20080;SDS011;10200;49.232;9.222;2023-05-07T12:01:27;1.67;;;1.13;;
20080;SDS011;10200;49.232;9.222;2023-05-07T12:03:53;2.15;;;1.25;;
20080;SDS011;10200;49.232;9.222;2023-05-07T12:06:19;2.45;;;1.00;;
20080;SDS011;10200;49.232;9.222;2023-05-07T12:08:45;2.00;;;1.00;;
20080;SDS011;10200;49.232;9.222;2023-05-07T12:11:25;1.42;;;0.90;;
20080;SDS011;10200;49.232;9.222;2023-05-07T12:13:51;1.33;;;0.95;;
20080;SDS011;10200;49.232;9.222;2023-05-07T12:16:18;1.65;;;1.13;;
20080;SDS011;10200;49.232;9.222;2023-05-07T12:18:45;2.80;;;1.30;;
20080;SDS011;10200;49.232;9.222;2023-05-07T12:21:11;0.98;;;0.88;;
20080;SDS011;10200;49.232;9.222;2023-05-07T12:23:40;1.38;;;1.17;;
20080;SDS011;10200;49.232;9.222;2023-05-07T12:26:08;1.80;;;1.10;;
20080;SDS011;10200;49.232;9.222;2023-05-07T12:28:37;1.35;;;1.10;;
20080;SDS011;10200;49.232;9.222;2023-05-07T12:31:06;0.77;;;0.77;;
20080;SDS011;10200;49.232;9.222;2023-05-07T12:33:33;1.58;;;1.00;;
20080;SDS011;10200;49.232;9.222;2023-05-07T12:36:02;1.23;;;0.93;;
20080;SDS011;10200;49.232;9.222;2023-05-07T12:38:34;1.05;;;0.80;;
20080;SDS011;10200;49.232;9.222;2023-05-07T12:41:04;1.27;;;0.95;;
20080;SDS011;10200;49.232;9.222;2023-05-07T12:43:32;0.90;;;0.90;;
20080;SDS011;10200;49.232;9.222;2023-05-07T12:45:59;1.25;;;1.10;;
20080;SDS011;10200;49.232;9.222;2023-05-07T12:48:26;2.20;;;0.80;;
20080;SDS011;10200;49.232;9.222;2023-05-07T12:50:53;3.22;;;1.17;;
20080;SDS011;10200;49.232;9.222;2023-05-07T12:53:20;2.05;;;1.00;;
20080;SDS011;10200;49.232;9.222;2023-05-07T12:55:49;2.55;;;1.00;;
20080;SDS011;10200;49.232;9.222;2023-05-07T12:58:24;1.38;;;1.00;;
20080;SDS011;10200;49.232;9.222;2023-05-07T13:00:58;3.90;;;1.10;;
20080;SDS011;10200;49.232;9.222;2023-05-07T13:03:32;1.05;;;1.00;;
20080;SDS011;10200;49.232;9.222;2023-05-07T13:06:00;1.30;;;1.20;;
20080;SDS011;10200;49.232;9.222;2023-05-07T13:08:37;0.80;;;0.80;;
20080;SDS011;10200;49.232;9.222;2023-05-07T13:11:08;0.95;;;0.85;;
20080;SDS011;10200;49.232;9.222;2023-05-07T13:13:36;2.15;;;1.05;;
20080;SDS011;10200;49.232;9.222;2023-05-07T13:16:04;1.25;;;0.90;;
20080;SDS011;10200;49.232;9.222;2023-05-07T13:18:33;1.02;;;1.00;;
20080;SDS011;10200;49.232;9.222;2023-05-07T13:21:01;0.85;;;0.82;;
20080;SDS011;10200;49.232;9.222;2023-05-07T13:23:27;1.10;;;1.00;;
20080;SDS011;10200;49.232;9.222;2023-05-07T13:25:53;1.10;;;0.80;;
20080;SDS011;10200;49.232;9.222;2023-05-07T13:28:19;2.33;;;1.13;;
20080;SDS011;10200;49.232;9.222;2023-05-07T13:30:45;1.00;;;0.88;;
20080;SDS011;10200;49.232;9.222;2023-05-07T13:33:11;3.00;;;1.25;;
20080;SDS011;10200;49.232;9.222;2023-05-07T13:35:37;2.78;;;1.08;;
20080;SDS011;10200;49.232;9.222;2023-05-07T13:38:04;2.03;;;1.25;;
20080;SDS011;10200;49.232;9.222;2023-05-07T13:40:31;3.38;;;1.20;;
20080;SDS011;10200;49.232;9.222;2023-05-07T13:42:57;1.33;;;1.08;;
20080;SDS011;10200;49.232;9.222;2023-05-07T13:45:27;1.38;;;1.23;;
20080;SDS011;10200;49.232;9.222;2023-05-07T13:47:54;2.35;;;1.30;;
20080;SDS011;10200;49.232;9.222;2023-05-07T13:50:38;1.40;;;1.00;;
20080;SDS011;10200;49.232;9.222;2023-05-07T13:53:05;2.00;;;1.30;;
20080;SDS011;10200;49.232;9.222;2023-05-07T13:55:32;2.80;;;1.05;;
20080;SDS011;10200;49.232;9.222;2023-05-07T13:57:59;1.52;;;1.10;;
20080;SDS011;10200;49.232;9.222;2023-05-07T14:00:26;1.58;;;0.95;;
20080;SDS011;10200;49.232;9.222;2023-05-07T14:02:53;1.30;;;1.05;;
20080;SDS011;10200;49.232;9.222;2023-05-07T14:05:20;2.72;;;1.30;;
20080;SDS011;10200;49.232;9.222;2023-05-07T14:07:46;2.05;;;1.38;;
20080;SDS011;10200;49.232;9.222;2023-05-07T14:10:12;2.53;;;1.38;;
20080;SDS011;10200;49.232;9.222;2023-05-07T14:12:38;1.08;;;0.98;;
20080;SDS011;10200;49.232;9.222;2023-05-07T14:15:04;2.50;;;1.30;;
20080;SDS011;10200;49.232;9.222;2023-05-07T14:17:30;1.13;;;1.02;;
20080;SDS011;10200;49.232;9.222;2023-05-07T14:19:57;2.92;;;1.02;;
20080;SDS011;10200;49.232;9.222;2023-05-07T14:22:25;1.85;;;1.33;;
20080;SDS011;10200;49.232;9.222;2023-05-07T14:24:52;2.70;;;1.15;;
20080;SDS011;10200;49.232;9.222;2023-05-07T14:27:18;1.67;;;1.50;;
20080;SDS011;10200;49.232;9.222;2023-05-07T14:29:44;1.42;;;1.25;;
20080;SDS011;10200;49.232;9.222;2023-05-07T14:32:15;1.20;;;1.10;;
20080;SDS011;10200;49.232;9.222;2023-05-07T14:34:45;1.85;;;1.20;;
20080;SDS011;10200;49.232;9.222;2023-05-07T14:37:12;1.42;;;1.33;;
20080;SDS011;10200;49.232;9.222;2023-05-07T14:39:38;4.13;;;1.55;;
20080;SDS011;10200;49.232;9.222;2023-05-07T14:42:04;1.90;;;1.20;;
20080;SDS011;10200;49.232;9.222;2023-05-07T14:44:32;4.88;;;1.67;;
20080;SDS011;10200;49.232;9.222;2023-05-07T14:47:01;2.53;;;1.70;;
20080;SDS011;10200;49.232;9.222;2023-05-07T14:49:26;3.42;;;1.52;;
20080;SDS011;10200;49.232;9.222;2023-05-07T14:51:53;7.57;;;2.08;;
20080;SDS011;10200;49.232;9.222;2023-05-07T14:54:22;2.28;;;1.90;;
20080;SDS011;10200;49.232;9.222;2023-05-07T14:56:48;4.72;;;2.00;;
20080;SDS011;10200;49.232;9.222;2023-05-07T14:59:15;3.92;;;2.13;;
20080;SDS011;10200;49.232;9.222;2023-05-07T15:01:45;2.05;;;1.70;;
20080;SDS011;10200;49.232;9.222;2023-05-07T15:04:11;7.93;;;2.28;;
20080;SDS011;10200;49.232;9.222;2023-05-07T15:06:36;5.53;;;2.65;;
20080;SDS011;10200;49.232;9.222;2023-05-07T15:09:02;8.70;;;2.97;;